createdAt,value
2023-06-27T00:01:48.503Z,99417.78
2023-06-27T00:06:50.562Z,99418.56
2023-06-27T00:11:52.288Z,99425.22
2023-06-27T00:16:54.151Z,99419.03
2023-06-27T00:21:56.580Z,99433.47
2023-06-27T00:26:58.879Z,99411.16
2023-06-27T00:32:00.725Z,99417.03
2023-06-27T00:37:02.494Z,99417.13
2023-06-27T00:42:05.189Z,99419.16
2023-06-27T00:47:07.514Z,99433.94
2023-06-27T00:52:09.487Z,99424.16
2023-06-27T00:57:11.308Z,99429.38
2023-06-27T01:02:15.116Z,99453.34
2023-06-27T01:07:28.380Z,99444.19
2023-06-27T01:12:48.040Z,99447.41
2023-06-27T01:17:51.238Z,99462.81
2023-06-27T01:23:28.197Z,99464.69
2023-06-27T01:28:30.005Z,99493.72
2023-06-27T01:33:42.860Z,99495.50
2023-06-27T01:39:11.690Z,99503.09
2023-06-27T01:44:15.428Z,99507.13
2023-06-27T01:49:17.360Z,99514.78
2023-06-27T01:54:19.086Z,99507.03
2023-06-27T01:59:20.948Z,99493.81
2023-06-27T02:04:22.611Z,99501.69
2023-06-27T02:09:24.518Z,99504.44
2023-06-27T02:14:26.405Z,99528.69
2023-06-27T02:19:28.117Z,99529.13
2023-06-27T02:24:29.748Z,99519.53
2023-06-27T02:29:31.994Z,99537.53
2023-06-27T02:34:33.667Z,99547.91
2023-06-27T02:39:35.427Z,99543.75
2023-06-27T02:44:37.163Z,99543.75
2023-06-27T02:49:38.931Z,99544.75
2023-06-27T02:54:40.674Z,99555.94
2023-06-27T02:59:42.319Z,99538.31
2023-06-27T03:04:45.723Z,99527.09
2023-06-27T03:09:47.626Z,99533.94
2023-06-27T03:14:52.431Z,99536.50
2023-06-27T03:19:55.021Z,99553.47
2023-06-27T03:24:56.828Z,99570.41
2023-06-27T03:29:59.994Z,99579.72
2023-06-27T03:35:03.002Z,99571.19
2023-06-27T03:40:05.909Z,99572.72
2023-06-27T03:45:08.119Z,99572.59
2023-06-27T03:50:10.152Z,99575.09
2023-06-27T03:55:12.093Z,99578.00
2023-06-27T04:00:15.707Z,99586.44
2023-06-27T04:05:17.623Z,99584.78
2023-06-27T04:10:20.421Z,99578.69
2023-06-27T04:15:22.245Z,99582.00
2023-06-27T04:20:24.228Z,99581.06
2023-06-27T04:25:33.851Z,99577.63
2023-06-27T04:30:37.752Z,99587.09
2023-06-27T04:35:39.893Z,99594.91
2023-06-27T04:40:45.083Z,99609.53
2023-06-27T04:45:46.951Z,99611.44
2023-06-27T04:50:48.805Z,99623.28
2023-06-27T04:55:51.870Z,99614.00
2023-06-27T05:00:53.762Z,99631.16
2023-06-27T05:05:55.558Z,99639.78
2023-06-27T05:10:57.921Z,99639.88
2023-06-27T05:15:59.877Z,99646.69
2023-06-27T05:21:01.562Z,99650.88
2023-06-27T05:26:03.400Z,99664.22
2023-06-27T05:31:05.305Z,99671.81
2023-06-27T05:36:08.404Z,99678.63
2023-06-27T05:41:10.186Z,99676.88
2023-06-27T05:46:11.926Z,99674.31
2023-06-27T05:51:13.696Z,99681.72
2023-06-27T05:56:15.458Z,99691.84
2023-06-27T06:01:17.132Z,99683.50
2023-06-27T06:06:18.843Z,99700.69
2023-06-27T06:11:20.497Z,99698.16
2023-06-27T06:16:22.195Z,99704.03
2023-06-27T06:21:23.883Z,99713.34
2023-06-27T06:26:25.781Z,99710.34
2023-06-27T06:31:27.389Z,99739.38
2023-06-27T06:36:29.153Z,99728.66
2023-06-27T06:41:31.542Z,99727.56
2023-06-27T06:46:33.445Z,99729.91
2023-06-27T06:51:35.212Z,99729.25
2023-06-27T06:56:36.918Z,99736.81
2023-06-27T07:01:38.720Z,99746.34
2023-06-27T07:06:40.428Z,99753.16
2023-06-27T07:11:42.242Z,99753.88
2023-06-27T07:16:43.907Z,99734.25
2023-06-27T07:21:45.659Z,99737.00
2023-06-27T07:26:47.527Z,99712.84
2023-06-27T07:31:49.138Z,99700.50
2023-06-27T07:36:51.248Z,99726.31
2023-06-27T07:41:53.037Z,99726.13
2023-06-27T07:46:54.735Z,99740.22
2023-06-27T07:51:56.557Z,99759.72
2023-06-27T07:56:58.683Z,99762.09
2023-06-27T08:02:00.562Z,99773.34
2023-06-27T08:07:02.437Z,99780.91
2023-06-27T08:12:07.458Z,99778.66
2023-06-27T08:17:09.291Z,99785.34
2023-06-27T08:22:10.996Z,99782.84
2023-06-27T08:27:12.990Z,99789.03
2023-06-27T08:32:14.669Z,99794.25
2023-06-27T08:37:16.422Z,99802.06
2023-06-27T08:42:18.623Z,99794.38
2023-06-27T08:47:23.794Z,99788.34
2023-06-27T08:52:26.810Z,99789.03
2023-06-27T08:57:33.149Z,99797.84
2023-06-27T09:02:35.787Z,99794.84
2023-06-27T09:07:37.955Z,99790.56
2023-06-27T09:12:44.898Z,99792.72
2023-06-27T09:17:48.137Z,99798.75
2023-06-27T09:22:51.015Z,99800.81
2023-06-27T09:27:55.006Z,99817.13
2023-06-27T09:32:59.134Z,99823.59
2023-06-27T09:43:14.389Z,99840.47
2023-06-27T09:48:19.678Z,99835.44
2023-06-27T09:53:23.946Z,99837.13
2023-06-27T09:58:32.620Z,99852.91
2023-06-27T10:03:35.067Z,99852.06
2023-06-27T10:08:37.839Z,99854.16
2023-06-27T10:13:40.694Z,99853.34
2023-06-27T10:18:43.578Z,99841.31
2023-06-27T10:23:53.913Z,99838.53
2023-06-27T10:28:56.069Z,99833.84
2023-06-27T10:33:59.097Z,99852.44
2023-06-27T10:39:00.765Z,99838.97
2023-06-27T10:44:10.811Z,99838.06
2023-06-27T10:49:12.656Z,99835.41
2023-06-27T10:54:17.198Z,99828.38
2023-06-27T10:59:20.356Z,99822.44
2023-06-27T11:04:27.161Z,99826.25
2023-06-27T11:09:30.919Z,99821.34
2023-06-27T11:14:39.728Z,99819.78
2023-06-27T11:19:43.670Z,99810.88
2023-06-27T11:24:46.359Z,99805.50
2023-06-27T11:29:48.084Z,99801.59
2023-06-27T11:34:50.042Z,99779.13
2023-06-27T11:39:55.679Z,99777.81
2023-06-27T11:44:57.409Z,99775.69
2023-06-27T11:50:10.056Z,99778.28
2023-06-27T11:55:11.940Z,99785.09
2023-06-27T12:00:27.508Z,99789.63
2023-06-27T12:05:29.504Z,99783.47
2023-06-27T12:10:32.850Z,99797.34
2023-06-27T12:15:47.899Z,99779.44
2023-06-27T12:20:51.001Z,99790.13
2023-06-27T12:25:52.615Z,99781.19
2023-06-27T12:30:54.357Z,99773.63
2023-06-27T12:35:56.120Z,99768.50
2023-06-27T12:40:58.538Z,99773.38
2023-06-27T12:46:04.076Z,99770.34
2023-06-27T12:51:05.871Z,99747.84
2023-06-27T12:56:07.711Z,99740.25
2023-06-27T13:01:11.249Z,99743.91
2023-06-27T13:06:13.175Z,99737.16
2023-06-27T13:11:16.616Z,99742.19
2023-06-27T13:16:18.375Z,99732.75
2023-06-27T13:21:20.304Z,99738.91
2023-06-27T13:26:22.256Z,99723.03
2023-06-27T13:31:24.863Z,99717.25
2023-06-27T13:36:26.596Z,99730.47
2023-06-27T13:41:29.226Z,99734.78
2023-06-27T13:46:31.058Z,99728.81
2023-06-27T13:51:32.892Z,99730.53
2023-06-27T13:56:37.149Z,99733.13
2023-06-27T14:01:40.178Z,99734.97
2023-06-27T14:06:41.978Z,99736.59
2023-06-27T14:11:43.982Z,99738.25
2023-06-27T14:16:45.849Z,99732.53
2023-06-27T14:21:47.509Z,99726.31
2023-06-27T14:26:49.078Z,99717.38
2023-06-27T14:31:50.770Z,99724.16
2023-06-27T14:36:53.280Z,99728.19
2023-06-27T14:41:55.062Z,99725.25
2023-06-27T14:46:56.923Z,99731.41
2023-06-27T14:51:58.566Z,99711.66
2023-06-27T14:57:00.257Z,99713.38
2023-06-27T15:02:01.969Z,99710.88
2023-06-27T15:07:03.962Z,99708.31
2023-06-27T15:12:06.462Z,99708.31
2023-06-27T15:17:08.267Z,99718.75
2023-06-27T15:22:09.933Z,99713.69
2023-06-27T15:27:11.569Z,99709.97
2023-06-27T15:32:14.074Z,99717.66
2023-06-27T15:37:15.734Z,99706.19
2023-06-27T15:42:17.454Z,99706.00
2023-06-27T15:47:20.545Z,99717.78
2023-06-27T15:52:22.225Z,99716.00
2023-06-27T15:57:23.902Z,99721.38
2023-06-27T16:02:25.815Z,99713.88
2023-06-27T16:07:27.793Z,99720.38
2023-06-27T16:12:29.521Z,99728.09
2023-06-27T16:17:31.333Z,99721.75
2023-06-27T16:22:33.400Z,99727.81
2023-06-27T16:27:35.233Z,99724.22
2023-06-27T16:32:37.159Z,99719.22
2023-06-27T16:37:38.912Z,99721.53
2023-06-27T16:42:40.692Z,99717.63
2023-06-27T16:47:42.567Z,99715.84
2023-06-27T16:52:44.477Z,99721.78
2023-06-27T16:57:46.167Z,99728.44
2023-06-27T17:02:49.409Z,99729.16
2023-06-27T17:07:51.241Z,99734.94
2023-06-27T17:12:53.433Z,99743.19
2023-06-27T17:17:55.362Z,99735.63
2023-06-27T17:22:57.193Z,99744.81
2023-06-27T17:28:01.615Z,99739.97
2023-06-27T17:33:03.571Z,99740.94
2023-06-27T17:38:05.345Z,99740.97
2023-06-27T17:43:08.496Z,99740.53
2023-06-27T17:48:10.285Z,99751.03
2023-06-27T17:53:11.994Z,99745.16
2023-06-27T17:58:13.644Z,99741.22
2023-06-27T18:03:15.405Z,99748.28
2023-06-27T18:08:20.810Z,99749.44
2023-06-27T18:13:22.738Z,99749.72
2023-06-27T18:18:24.517Z,99754.44
2023-06-27T18:23:26.224Z,99756.59
2023-06-27T18:28:29.457Z,99754.81
2023-06-27T18:33:31.193Z,99746.88
2023-06-27T18:38:32.923Z,99752.53
2023-06-27T18:43:34.968Z,99757.31
2023-06-27T18:48:37.138Z,99756.91
2023-06-27T18:53:38.886Z,99767.47
2023-06-27T18:58:42.593Z,99772.22
2023-06-27T19:03:44.576Z,99774.41
2023-06-27T19:08:46.277Z,99781.69
2023-06-27T19:13:48.137Z,99782.00
2023-06-27T19:18:49.780Z,99796.78
2023-06-27T19:23:52.893Z,99792.88
2023-06-27T19:28:54.682Z,99812.72
2023-06-27T19:33:56.395Z,99810.44
2023-06-27T19:38:58.166Z,99820.88
2023-06-27T19:43:59.829Z,99824.53
2023-06-27T19:49:01.566Z,99820.50
2023-06-27T19:54:04.290Z,99826.63
2023-06-27T19:59:06.016Z,99831.84
2023-06-27T20:04:07.825Z,99831.97
2023-06-27T20:09:09.531Z,99833.94
2023-06-27T20:14:11.426Z,99838.31
2023-06-27T20:19:13.057Z,99832.56
2023-06-27T20:24:15.317Z,99832.72
2023-06-27T20:29:17.134Z,99836.28
2023-06-27T20:34:18.953Z,99838.03
2023-06-27T20:39:21.321Z,99838.09
2023-06-27T20:44:23.277Z,99832.34
2023-06-27T20:49:25.094Z,99840.09
2023-06-27T20:54:26.910Z,99843.63
2023-06-27T20:59:28.633Z,99832.66
2023-06-27T21:04:30.342Z,99831.03
2023-06-27T21:09:32.008Z,99828.53
2023-06-27T21:14:33.650Z,99830.34
2023-06-27T21:19:35.272Z,99826.94
2023-06-27T21:24:36.970Z,99830.28
2023-06-27T21:29:38.687Z,99827.94
2023-06-27T21:34:40.474Z,99822.84
2023-06-27T21:39:42.190Z,99823.66
2023-06-27T21:44:44.174Z,99863.63
2023-06-27T21:49:45.866Z,99853.47
2023-06-27T21:54:47.818Z,99851.91
2023-06-27T21:59:49.628Z,99854.53
2023-06-27T22:04:51.992Z,99866.47
2023-06-27T22:09:53.918Z,99861.44
2023-06-27T22:14:55.572Z,99851.25
2023-06-27T22:19:57.614Z,99839.31
2023-06-27T22:24:59.585Z,99841.81
2023-06-27T22:30:01.466Z,99840.97
2023-06-27T22:35:03.309Z,99837.63
2023-06-27T22:40:05.582Z,99836.81
2023-06-27T22:45:07.566Z,99835.22
2023-06-27T22:50:09.779Z,99835.22
2023-06-27T22:55:11.384Z,99836.09
2023-06-27T23:00:13.858Z,99827.63
2023-06-27T23:05:15.546Z,99814.16
2023-06-27T23:10:17.262Z,99815.91
2023-06-27T23:15:18.945Z,99813.47
2023-06-27T23:20:20.887Z,99804.31
2023-06-27T23:25:22.986Z,99798.38
2023-06-27T23:30:27.695Z,99800.09
2023-06-27T23:35:29.569Z,99808.59
2023-06-27T23:40:31.390Z,99818.78
2023-06-27T23:45:39.013Z,99835.75
2023-06-27T23:50:41.051Z,99837.47
2023-06-27T23:55:43.040Z,99834.94
